createdAt,value
2018-07-28T01:00:29.679Z,26.23
2018-07-28T01:01:29.623Z,26.26
2018-07-28T01:02:29.613Z,26.26
2018-07-28T01:03:29.604Z,26.12
2018-07-28T01:04:29.591Z,26.20
2018-07-28T01:05:29.631Z,26.12
2018-07-28T01:06:29.570Z,26.20
2018-07-28T01:07:29.559Z,26.15
2018-07-28T01:08:29.545Z,26.07
2018-07-28T01:09:29.544Z,26.02
2018-07-28T01:10:29.568Z,26.09
2018-07-28T01:11:29.524Z,26.02
2018-07-28T01:12:29.507Z,26.09
2018-07-28T01:13:29.490Z,26.07
2018-07-28T01:14:29.480Z,26.05
2018-07-28T01:15:29.516Z,25.97
2018-07-28T01:16:29.456Z,25.94
2018-07-28T01:17:29.445Z,25.99
2018-07-28T01:18:29.433Z,25.98
2018-07-28T01:19:29.423Z,25.98
2018-07-28T01:20:29.462Z,25.97
2018-07-28T01:21:29.400Z,25.94
2018-07-28T01:22:29.392Z,25.83
2018-07-28T01:23:29.387Z,25.79
2018-07-28T01:24:29.368Z,25.77
2018-07-28T01:25:29.409Z,25.76
2018-07-28T01:26:29.350Z,25.80
2018-07-28T01:27:29.334Z,25.77
2018-07-28T01:28:29.327Z,25.67
2018-07-28T01:29:29.319Z,25.61
2018-07-28T01:30:29.355Z,25.64
2018-07-28T01:31:29.293Z,25.52
2018-07-28T01:32:29.287Z,25.54
2018-07-28T01:33:29.269Z,25.52
2018-07-28T01:34:29.270Z,25.39
2018-07-28T01:35:29.246Z,25.52
2018-07-28T01:36:29.280Z,25.52
2018-07-28T01:37:29.225Z,25.54
2018-07-28T01:38:29.213Z,25.38
2018-07-28T01:39:29.203Z,25.40
2018-07-28T01:40:29.194Z,25.42
2018-07-28T01:41:29.225Z,25.42
2018-07-28T01:42:29.169Z,25.42
2018-07-28T01:43:29.158Z,25.35
2018-07-28T01:44:29.146Z,25.39
2018-07-28T01:45:29.139Z,25.39
2018-07-28T01:46:29.172Z,25.36
2018-07-28T01:47:29.112Z,25.36
2018-07-28T01:48:29.100Z,25.39
2018-07-28T01:49:29.140Z,25.36
2018-07-28T01:50:29.080Z,25.35
2018-07-28T01:51:29.115Z,25.36
2018-07-28T01:52:29.077Z,25.40
2018-07-28T01:53:29.047Z,25.39
2018-07-28T01:54:29.036Z,25.43
2018-07-28T01:55:29.024Z,25.46
2018-07-28T01:56:29.059Z,25.40
2018-07-28T01:57:29.007Z,25.39
2018-07-28T01:58:28.994Z,25.38
2018-07-28T01:59:28.979Z,25.45
2018-07-28T02:00:28.973Z,25.36
2018-07-28T02:01:29.002Z,25.39
2018-07-28T02:02:28.952Z,25.39
2018-07-28T02:03:28.948Z,25.36
2018-07-28T02:04:28.932Z,25.36
2018-07-28T02:05:28.916Z,25.42
2018-07-28T02:06:28.950Z,25.39
2018-07-28T02:07:28.893Z,25.36
2018-07-28T02:08:28.881Z,25.35
2018-07-28T02:09:28.871Z,25.40
2018-07-28T02:10:28.860Z,25.40
2018-07-28T02:11:28.893Z,25.35
2018-07-28T02:12:28.834Z,25.45
2018-07-28T02:13:28.825Z,25.46
2018-07-28T02:14:28.812Z,25.36
2018-07-28T02:15:28.800Z,25.38
2018-07-28T02:16:28.835Z,25.33
2018-07-28T02:17:28.779Z,25.25
2018-07-28T02:18:28.802Z,25.23
2018-07-28T02:19:28.763Z,25.24
2018-07-28T02:20:28.745Z,25.17
2018-07-28T02:21:28.781Z,25.27
2018-07-28T02:22:28.721Z,25.28
2018-07-28T02:23:28.713Z,25.27
2018-07-28T02:24:28.702Z,25.18
2018-07-28T02:25:28.695Z,25.24
2018-07-28T02:26:28.726Z,25.27
2018-07-28T02:27:28.669Z,25.21
2018-07-28T02:28:28.724Z,25.21
2018-07-28T02:29:28.653Z,25.14
2018-07-28T02:30:28.635Z,25.10
2018-07-28T02:31:28.670Z,25.20
2018-07-28T02:32:28.613Z,25.09
2018-07-28T02:33:28.600Z,25.02
2018-07-28T02:34:28.596Z,25.02
2018-07-28T02:35:28.580Z,25.00
2018-07-28T02:36:28.615Z,24.98
2018-07-28T02:37:28.556Z,25.00
2018-07-28T02:38:28.545Z,25.08
2018-07-28T02:39:28.540Z,24.99
2018-07-28T02:40:28.521Z,25.06
2018-07-28T02:41:28.563Z,25.03
2018-07-28T02:42:28.507Z,24.99
2018-07-28T02:43:28.488Z,24.99
2018-07-28T02:44:28.477Z,25.09
2018-07-28T02:45:28.465Z,25.03
2018-07-28T02:46:28.502Z,25.00
2018-07-28T02:47:28.444Z,25.05
2018-07-28T02:48:28.437Z,25.05
2018-07-28T02:49:28.425Z,24.98
2018-07-28T02:50:28.418Z,25.05
2018-07-28T02:51:28.453Z,25.10
2018-07-28T02:52:28.402Z,25.09
2018-07-28T02:53:28.379Z,25.18
2018-07-28T02:54:28.372Z,25.10
2018-07-28T02:55:28.354Z,25.10
2018-07-28T02:56:28.405Z,25.09
2018-07-28T02:57:28.331Z,25.10
2018-07-28T02:58:28.321Z,25.05
2018-07-28T02:59:28.320Z,25.06
2018-07-28T03:00:28.298Z,24.99
2018-07-28T03:01:28.334Z,25.05
2018-07-28T03:02:28.280Z,25.08
2018-07-28T03:03:28.263Z,24.98
2018-07-28T03:04:28.255Z,25.03
2018-07-28T03:05:28.252Z,24.98
2018-07-28T03:06:28.274Z,25.02
2018-07-28T03:07:28.219Z,25.06
2018-07-28T03:08:28.211Z,24.99
2018-07-28T03:09:28.197Z,25.03
2018-07-28T03:10:28.188Z,25.00
2018-07-28T03:11:28.220Z,24.98
2018-07-28T03:12:28.167Z,25.09
2018-07-28T03:13:28.150Z,25.06
2018-07-28T03:14:28.159Z,25.02
2018-07-28T03:15:28.128Z,25.09
2018-07-28T03:16:28.168Z,25.03
2018-07-28T03:17:28.114Z,25.05
2018-07-28T03:18:28.098Z,25.10
2018-07-28T03:19:28.085Z,24.99
2018-07-28T03:20:28.076Z,24.99
2018-07-28T03:21:28.116Z,25.00
2018-07-28T03:22:28.053Z,25.05
2018-07-28T03:23:28.042Z,25.00
2018-07-28T03:24:28.036Z,25.03
2018-07-28T03:25:28.016Z,25.08
2018-07-28T03:26:28.056Z,25.08
2018-07-28T03:27:27.997Z,25.10
2018-07-28T03:28:27.987Z,25.10
2018-07-28T03:29:27.977Z,25.03
2018-07-28T03:30:27.963Z,25.02
2018-07-28T03:31:27.998Z,25.00
2018-07-28T03:32:27.952Z,24.90
2018-07-28T03:33:27.932Z,25.08
2018-07-28T03:34:27.916Z,25.21
2018-07-28T03:35:27.913Z,25.46
2018-07-28T03:36:27.939Z,25.45
2018-07-28T03:37:27.884Z,25.42
2018-07-28T03:38:27.869Z,25.47
2018-07-28T03:39:27.864Z,25.39
2018-07-28T03:40:27.849Z,25.39
2018-07-28T03:41:27.889Z,25.32
2018-07-28T03:42:27.826Z,25.50
2018-07-28T03:43:27.816Z,25.38
2018-07-28T03:44:27.803Z,25.47
2018-07-28T03:45:27.789Z,25.46
2018-07-28T03:46:27.798Z,25.40
2018-07-28T03:47:27.820Z,25.27
2018-07-28T03:48:27.757Z,24.99
2018-07-28T03:49:27.763Z,24.98
2018-07-28T03:50:27.736Z,24.81
2018-07-28T03:51:27.724Z,24.73
2018-07-28T03:52:27.759Z,24.71
2018-07-28T03:53:27.723Z,24.67
2018-07-28T03:54:27.690Z,24.62
2018-07-28T03:55:27.681Z,24.62
2018-07-28T03:56:27.701Z,24.64
2018-07-28T03:57:27.703Z,24.57
2018-07-28T03:58:27.657Z,24.67
2018-07-28T03:59:27.638Z,24.65
2018-07-28T04:00:27.624Z,24.60
2018-07-28T04:01:27.611Z,24.81
2018-07-28T04:02:27.644Z,24.93
2018-07-28T04:03:27.596Z,25.03
2018-07-28T04:04:27.578Z,25.06
2018-07-28T04:05:27.571Z,25.02
2018-07-28T04:06:27.552Z,24.90
2018-07-28T04:07:27.589Z,24.73
2018-07-28T04:08:27.533Z,24.64
2018-07-28T04:09:27.525Z,24.45
2018-07-28T04:10:27.517Z,24.37
2018-07-28T04:11:27.499Z,24.30
2018-07-28T04:12:27.540Z,24.13
2018-07-28T04:13:27.481Z,24.03
2018-07-28T04:14:27.490Z,23.93
2018-07-28T04:15:27.457Z,23.76
2018-07-28T04:16:27.471Z,23.73
2018-07-28T04:17:27.478Z,23.79
2018-07-28T04:18:27.417Z,23.84
2018-07-28T04:19:27.409Z,23.83
2018-07-28T04:20:27.412Z,23.79
2018-07-28T04:21:27.402Z,23.94
2018-07-28T04:22:27.421Z,23.91
2018-07-28T04:23:27.364Z,23.84
2018-07-28T04:24:27.352Z,23.84
2018-07-28T04:25:27.341Z,23.75
2018-07-28T04:26:27.337Z,23.72
2018-07-28T04:27:27.372Z,23.83
2018-07-28T04:28:27.315Z,23.78
2018-07-28T04:29:27.338Z,23.73
2018-07-28T04:30:27.288Z,23.72
2018-07-28T04:31:27.274Z,23.78
2018-07-28T04:32:27.317Z,23.73
2018-07-28T04:33:27.252Z,23.65
2018-07-28T04:34:27.245Z,23.57
2018-07-28T04:35:27.246Z,23.68
2018-07-28T04:36:27.221Z,23.61
2018-07-28T04:37:27.254Z,23.55
2018-07-28T04:38:27.221Z,23.58
2018-07-28T04:39:27.186Z,23.58
2018-07-28T04:40:27.174Z,23.60
2018-07-28T04:41:27.170Z,23.57
2018-07-28T04:42:27.198Z,23.53
2018-07-28T04:43:27.148Z,23.57
2018-07-28T04:44:27.153Z,23.66
2018-07-28T04:45:27.129Z,23.58
2018-07-28T04:46:27.108Z,23.55
2018-07-28T04:47:27.161Z,23.55
2018-07-28T04:48:27.088Z,23.65
2018-07-28T04:49:27.080Z,23.61
2018-07-28T04:50:27.085Z,23.65
2018-07-28T04:51:27.057Z,23.61
2018-07-28T04:52:27.103Z,23.66
2018-07-28T04:53:27.036Z,23.61
2018-07-28T04:54:27.021Z,23.61
2018-07-28T04:55:27.017Z,23.51
2018-07-28T04:56:27.015Z,23.55
2018-07-28T04:57:27.039Z,23.57
2018-07-28T04:58:26.982Z,23.61
2018-07-28T04:59:26.967Z,23.58
2018-07-28T05:00:26.957Z,23.50
2018-07-28T05:01:26.957Z,23.48
2018-07-28T05:02:26.977Z,23.36
2018-07-28T05:03:26.923Z,23.32
2018-07-28T05:04:26.928Z,23.46
2018-07-28T05:05:26.897Z,23.36
2018-07-28T05:06:26.890Z,23.32
2018-07-28T05:07:27.038Z,23.38
2018-07-28T05:08:26.872Z,23.40
2018-07-28T05:09:26.856Z,23.39
2018-07-28T05:10:26.848Z,23.48
2018-07-28T05:11:26.844Z,23.35
2018-07-28T05:12:26.872Z,23.40
2018-07-28T05:13:26.825Z,23.50
2018-07-28T05:14:26.803Z,23.55
2018-07-28T05:15:26.793Z,23.53
2018-07-28T05:16:26.776Z,23.54
2018-07-28T05:17:26.823Z,23.58
2018-07-28T05:18:26.788Z,23.60
2018-07-28T05:19:26.750Z,23.69
2018-07-28T05:20:26.732Z,23.66
2018-07-28T05:21:26.725Z,23.72
2018-07-28T05:22:26.774Z,23.85
2018-07-28T05:23:26.698Z,23.87
2018-07-28T05:24:26.689Z,23.88
2018-07-28T05:25:26.678Z,23.93
2018-07-28T05:26:26.667Z,24.05
2018-07-28T05:27:26.706Z,24.10
2018-07-28T05:28:26.649Z,24.13
2018-07-28T05:29:26.635Z,24.13
2018-07-28T05:30:26.624Z,24.18
2018-07-28T05:31:26.615Z,24.25
2018-07-28T05:32:26.655Z,24.35
2018-07-28T05:33:26.595Z,24.43
2018-07-28T05:34:26.599Z,24.43
2018-07-28T05:35:26.569Z,24.40
2018-07-28T05:36:26.558Z,24.45
2018-07-28T05:37:26.592Z,24.27
2018-07-28T05:38:26.540Z,24.28
2018-07-28T05:39:26.527Z,24.28
2018-07-28T05:40:26.520Z,24.35
2018-07-28T05:41:26.507Z,24.30
2018-07-28T05:42:26.571Z,24.25
2018-07-28T05:43:26.486Z,24.25
2018-07-28T05:44:26.490Z,24.20
2018-07-28T05:45:26.467Z,24.18
2018-07-28T05:46:26.455Z,24.20
2018-07-28T05:47:26.486Z,24.15
2018-07-28T05:48:26.428Z,24.08
2018-07-28T05:49:26.418Z,24.03
2018-07-28T05:50:26.404Z,24.06
2018-07-28T05:51:26.391Z,24.18
2018-07-28T05:52:26.455Z,24.27
2018-07-28T05:53:26.380Z,24.18
2018-07-28T05:54:26.359Z,24.13
2018-07-28T05:55:26.364Z,24.18
2018-07-28T05:56:26.339Z,24.18
2018-07-28T05:57:26.373Z,24.21
2018-07-28T05:58:26.315Z,24.24
2018-07-28T05:59:26.317Z,24.28
2018-07-28T06:00:26.292Z,24.16
2018-07-28T06:01:26.280Z,24.12
2018-07-28T06:02:26.373Z,24.02
2018-07-28T06:03:26.309Z,24.03
2018-07-28T06:04:26.249Z,24.00
2018-07-28T06:05:26.238Z,24.02
2018-07-28T06:06:26.228Z,24.00
2018-07-28T06:07:26.219Z,23.95
2018-07-28T06:08:26.256Z,23.95
2018-07-28T06:09:26.193Z,23.87
2018-07-28T06:10:26.181Z,23.93
2018-07-28T06:11:26.170Z,23.88
2018-07-28T06:12:26.167Z,23.91
2018-07-28T06:13:26.196Z,23.91
2018-07-28T06:14:26.159Z,23.93
2018-07-28T06:15:26.127Z,23.93
2018-07-28T06:16:26.116Z,23.88
2018-07-28T06:17:26.114Z,23.94
2018-07-28T06:18:26.153Z,23.97
2018-07-28T06:19:26.088Z,24.08
2018-07-28T06:20:26.163Z,24.09
2018-07-28T06:21:26.062Z,24.08
2018-07-28T06:22:26.057Z,24.22
2018-07-28T06:23:26.090Z,24.42
2018-07-28T06:24:26.031Z,24.52
2018-07-28T06:25:26.028Z,24.65
2018-07-28T06:26:26.009Z,24.78
2018-07-28T06:27:25.997Z,24.77
2018-07-28T06:28:26.028Z,24.81
2018-07-28T06:29:25.981Z,24.83
2018-07-28T06:30:25.971Z,24.85
2018-07-28T06:31:25.953Z,24.87
2018-07-28T06:32:25.940Z,24.91
2018-07-28T06:33:25.980Z,24.90
2018-07-28T06:34:25.920Z,24.95
2018-07-28T06:35:25.908Z,24.73
2018-07-28T06:36:25.914Z,24.64
2018-07-28T06:37:25.891Z,24.65
2018-07-28T06:38:25.923Z,24.73
2018-07-28T06:39:25.905Z,24.80
2018-07-28T06:40:25.853Z,24.65
2018-07-28T06:41:25.846Z,24.65
2018-07-28T06:42:25.839Z,24.69
2018-07-28T06:43:25.868Z,24.83
2018-07-28T06:44:25.807Z,24.91
2018-07-28T06:45:25.801Z,25.03
2018-07-28T06:46:25.785Z,24.99
2018-07-28T06:47:25.774Z,25.13
2018-07-28T06:48:25.810Z,25.10
2018-07-28T06:49:25.758Z,25.24
2018-07-28T06:50:25.742Z,25.20
2018-07-28T06:51:25.731Z,25.10
2018-07-28T06:52:25.731Z,25.00
2018-07-28T06:53:25.823Z,25.06
2018-07-28T06:54:25.715Z,24.91
2018-07-28T06:55:25.716Z,25.00
2018-07-28T06:56:25.706Z,24.98
2018-07-28T06:57:25.680Z,25.18
2018-07-28T06:58:25.700Z,25.25
2018-07-28T06:59:25.656Z,25.32
2018-07-28T07:00:25.630Z,25.45
2018-07-28T07:01:25.617Z,25.40
2018-07-28T07:02:25.617Z,25.36
2018-07-28T07:03:25.661Z,25.32
2018-07-28T07:04:25.584Z,25.33
2018-07-28T07:05:25.599Z,25.21
2018-07-28T07:06:25.568Z,25.30
2018-07-28T07:07:25.550Z,25.36
2018-07-28T07:08:25.605Z,25.40
2018-07-28T07:09:25.545Z,25.40
2018-07-28T07:10:25.524Z,25.28
2018-07-28T07:11:25.515Z,25.20
2018-07-28T07:12:25.493Z,25.20
2018-07-28T07:13:25.544Z,25.18
2018-07-28T07:14:25.503Z,25.18
2018-07-28T07:15:25.467Z,25.17
2018-07-28T07:16:25.452Z,25.10
2018-07-28T07:17:25.445Z,25.02
2018-07-28T07:18:25.473Z,25.06
2018-07-28T07:19:25.475Z,24.95
2018-07-28T07:20:25.407Z,24.95
2018-07-28T07:21:25.392Z,24.84
2018-07-28T07:22:25.384Z,24.81
2018-07-28T07:23:25.419Z,24.83
2018-07-28T07:24:25.357Z,24.80
2018-07-28T07:25:25.349Z,24.83
2018-07-28T07:26:25.344Z,24.73
2018-07-28T07:27:25.326Z,24.81
2018-07-28T07:28:25.374Z,24.78
2018-07-28T07:29:25.314Z,24.81
2018-07-28T07:30:25.353Z,24.81
2018-07-28T07:31:25.279Z,24.80
2018-07-28T07:32:25.271Z,24.81
2018-07-28T07:33:25.259Z,24.83
2018-07-28T07:34:25.301Z,24.80
2018-07-28T07:35:25.234Z,24.78
2018-07-28T07:36:25.228Z,24.69
2018-07-28T07:37:25.218Z,24.77
2018-07-28T07:38:25.200Z,24.68
2018-07-28T07:39:25.253Z,24.83
2018-07-28T07:40:25.179Z,24.80
2018-07-28T07:41:25.168Z,24.80
2018-07-28T07:42:25.159Z,24.84
2018-07-28T07:43:25.147Z,24.88
2018-07-28T07:44:25.185Z,24.83
2018-07-28T07:45:25.123Z,24.90
2018-07-28T07:46:25.121Z,24.95
2018-07-28T07:47:25.169Z,24.96
2018-07-28T07:48:25.090Z,25.02
2018-07-28T07:49:25.129Z,25.03
2018-07-28T07:50:25.070Z,24.96
2018-07-28T07:51:25.064Z,24.95
2018-07-28T07:52:25.046Z,24.91
2018-07-28T07:53:25.033Z,24.98
2018-07-28T07:54:25.067Z,25.05
2018-07-28T07:55:25.017Z,25.00
2018-07-28T07:56:25.004Z,25.05
2018-07-28T07:57:24.991Z,25.08
2018-07-28T07:58:24.977Z,25.09
2018-07-28T07:59:25.023Z,25.10
2018-07-28T08:00:24.956Z,25.09
2018-07-28T08:01:24.941Z,25.23
2018-07-28T08:02:24.933Z,25.27
2018-07-28T08:03:24.920Z,25.20
2018-07-28T08:04:24.956Z,25.32
2018-07-28T08:05:24.898Z,25.24
2018-07-28T08:06:24.953Z,25.27
2018-07-28T08:07:24.876Z,25.28
2018-07-28T08:08:24.863Z,25.35
2018-07-28T08:09:24.897Z,25.25
2018-07-28T08:10:24.840Z,25.25
2018-07-28T08:11:24.830Z,25.35
2018-07-28T08:12:24.818Z,25.27
2018-07-28T08:13:24.808Z,25.28
2018-07-28T08:14:24.855Z,25.27
2018-07-28T08:15:24.790Z,25.30
2018-07-28T08:16:24.776Z,25.30
2018-07-28T08:17:24.764Z,25.35
2018-07-28T08:18:24.751Z,25.32
2018-07-28T08:19:24.788Z,25.40
2018-07-28T08:20:24.731Z,25.46
2018-07-28T08:21:24.718Z,25.45
2018-07-28T08:22:24.705Z,25.47
2018-07-28T08:23:24.697Z,25.50
2018-07-28T08:24:24.729Z,25.50
2018-07-28T08:25:24.679Z,25.52
2018-07-28T08:26:24.663Z,25.51
2018-07-28T08:27:24.658Z,25.50
2018-07-28T08:28:24.641Z,25.60
2018-07-28T08:29:24.691Z,25.60
2018-07-28T08:30:24.635Z,25.64
2018-07-28T08:31:24.608Z,25.65
2018-07-28T08:32:24.601Z,25.76
2018-07-28T08:33:24.634Z,25.76
2018-07-28T08:34:24.623Z,25.75
2018-07-28T08:35:24.566Z,25.83
2018-07-28T08:36:24.549Z,25.83
2018-07-28T08:37:24.539Z,25.91
2018-07-28T08:38:24.527Z,25.92
2018-07-28T08:39:24.564Z,25.92
2018-07-28T08:40:24.506Z,25.95
2018-07-28T08:41:24.511Z,25.91
2018-07-28T08:42:24.486Z,25.94
2018-07-28T08:43:24.472Z,25.83
2018-07-28T08:44:24.516Z,25.85
2018-07-28T08:45:24.451Z,25.79
2018-07-28T08:46:24.439Z,25.79
2018-07-28T08:47:24.439Z,25.90
2018-07-28T08:48:24.416Z,25.98
2018-07-28T08:49:24.502Z,25.92
2018-07-28T08:50:24.438Z,26.09
2018-07-28T08:51:24.381Z,26.09
2018-07-28T08:52:24.372Z,26.28
2018-07-28T08:53:24.367Z,26.23
2018-07-28T08:54:24.394Z,26.32
2018-07-28T08:55:24.394Z,26.35
2018-07-28T08:56:24.330Z,26.39
2018-07-28T08:57:24.315Z,26.36
2018-07-28T08:58:24.311Z,26.40
2018-07-28T08:59:24.294Z,26.44
2018-07-28T09:00:24.331Z,26.55
2018-07-28T09:01:24.281Z,26.63
2018-07-28T09:02:24.263Z,26.60
2018-07-28T09:03:24.252Z,26.54
2018-07-28T09:04:24.255Z,26.63
2018-07-28T09:05:24.277Z,26.62
2018-07-28T09:06:24.218Z,26.62
2018-07-28T09:07:24.226Z,26.43
2018-07-28T09:08:24.195Z,26.45
2018-07-28T09:09:24.221Z,26.47
2018-07-28T09:10:24.831Z,26.48
2018-07-28T09:11:24.235Z,26.47
2018-07-28T09:12:24.211Z,26.67
2018-07-28T09:13:24.140Z,26.95
2018-07-28T09:14:24.142Z,27.00
2018-07-28T09:15:24.177Z,26.99
2018-07-28T09:16:24.154Z,27.07
2018-07-28T09:17:24.096Z,27.12
2018-07-28T09:18:24.087Z,27.14
2018-07-28T09:19:24.078Z,27.19
2018-07-28T09:20:24.062Z,27.29
2018-07-28T09:21:24.100Z,27.46
2018-07-28T09:22:24.039Z,27.57
2018-07-28T09:23:24.079Z,27.43
2018-07-28T09:24:24.018Z,27.32
2018-07-28T09:25:24.007Z,27.28
2018-07-28T09:26:24.045Z,27.34
2018-07-28T09:27:23.991Z,27.43
2018-07-28T09:28:23.973Z,27.46
2018-07-28T09:29:23.962Z,27.60
2018-07-28T09:30:23.955Z,27.60
2018-07-28T09:31:24.019Z,27.70
2018-07-28T09:32:23.933Z,27.72
2018-07-28T09:33:23.922Z,27.70
2018-07-28T09:34:23.908Z,27.82
2018-07-28T09:35:23.905Z,27.66
2018-07-28T09:36:23.941Z,27.81
2018-07-28T09:37:23.876Z,27.96
2018-07-28T09:38:23.870Z,27.90
2018-07-28T09:39:23.867Z,27.97
2018-07-28T09:40:23.842Z,28.09
2018-07-28T09:41:23.880Z,28.06
2018-07-28T09:42:23.826Z,28.19
2018-07-28T09:43:23.810Z,28.25
2018-07-28T09:44:23.799Z,28.31
2018-07-28T09:45:24.327Z,28.41
2018-07-28T09:46:23.854Z,28.44
2018-07-28T09:47:23.764Z,28.40
2018-07-28T09:48:23.756Z,28.44
2018-07-28T09:49:23.749Z,28.61
2018-07-28T09:50:23.733Z,28.73
2018-07-28T09:51:23.766Z,28.76
2018-07-28T09:52:23.711Z,28.76
2018-07-28T09:53:23.699Z,28.77
2018-07-28T09:54:23.696Z,28.68
2018-07-28T09:55:23.677Z,28.71
2018-07-28T09:56:23.726Z,28.74
2018-07-28T09:57:23.655Z,28.73
2018-07-28T09:58:23.646Z,28.71
2018-07-28T09:59:23.633Z,28.76
2018-07-28T10:00:23.622Z,28.80
2018-07-28T10:01:23.660Z,28.77
2018-07-28T10:02:23.611Z,28.83
2018-07-28T10:03:23.589Z,28.77
2018-07-28T10:04:23.583Z,28.86
2018-07-28T10:05:23.568Z,28.56
2018-07-28T10:06:23.603Z,28.56
2018-07-28T10:07:23.547Z,28.51
2018-07-28T10:08:23.538Z,28.64
2018-07-28T10:09:23.522Z,28.66
2018-07-28T10:10:23.516Z,28.64
2018-07-28T10:11:23.556Z,28.48
2018-07-28T10:12:23.490Z,28.59
2018-07-28T10:13:23.479Z,28.61
2018-07-28T10:14:23.474Z,28.71
2018-07-28T10:15:23.458Z,28.71
2018-07-28T10:16:23.643Z,28.71
2018-07-28T10:17:23.435Z,28.71
2018-07-28T10:18:23.425Z,28.64
2018-07-28T10:19:23.417Z,28.61
2018-07-28T10:20:23.422Z,28.64
2018-07-28T10:21:23.449Z,28.62
2018-07-28T10:22:23.379Z,28.67
2018-07-28T10:23:23.372Z,28.59
2018-07-28T10:24:23.358Z,28.59
2018-07-28T10:25:23.352Z,28.62
2018-07-28T10:26:23.383Z,28.67
2018-07-28T10:27:23.327Z,28.68
2018-07-28T10:28:23.325Z,28.89
2018-07-28T10:29:23.307Z,28.78
2018-07-28T10:30:23.293Z,28.86
2018-07-28T10:31:23.334Z,28.85
2018-07-28T10:32:23.271Z,28.89
2018-07-28T10:33:23.264Z,28.73
2018-07-28T10:34:23.252Z,28.70
2018-07-28T10:35:23.247Z,28.66
2018-07-28T10:36:23.353Z,28.68
2018-07-28T10:37:23.224Z,28.61
2018-07-28T10:38:23.205Z,28.73
2018-07-28T10:39:23.193Z,28.77
2018-07-28T10:40:23.192Z,28.85
2018-07-28T10:41:23.236Z,28.78
2018-07-28T10:42:23.163Z,28.92
2018-07-28T10:43:23.161Z,29.06
2018-07-28T10:44:23.185Z,29.04
2018-07-28T10:45:23.138Z,29.09
2018-07-28T10:46:23.165Z,29.33
2018-07-28T10:47:23.109Z,29.34
2018-07-28T10:48:23.104Z,29.41
2018-07-28T10:49:23.085Z,29.42
2018-07-28T10:50:23.073Z,29.46
2018-07-28T10:51:23.115Z,29.49
2018-07-28T10:52:23.051Z,29.58
2018-07-28T10:53:23.042Z,29.67
2018-07-28T10:54:23.029Z,29.67
2018-07-28T10:55:23.043Z,29.74
2018-07-28T10:56:23.060Z,29.73
2018-07-28T10:57:22.996Z,29.52
2018-07-28T10:58:22.989Z,29.57
2018-07-28T10:59:22.975Z,29.58
2018-07-28T11:00:23.014Z,29.55
2018-07-28T11:01:22.953Z,29.67
2018-07-28T11:02:22.994Z,29.60
2018-07-28T11:03:22.934Z,29.74
2018-07-28T11:04:22.921Z,29.92
2018-07-28T11:05:22.911Z,30.08
2018-07-28T11:06:22.901Z,30.13
2018-07-28T11:07:22.934Z,30.05
2018-07-28T11:08:22.877Z,29.89
2018-07-28T11:09:22.867Z,30.04
2018-07-28T11:10:22.857Z,30.11
2018-07-28T11:11:22.851Z,30.17
2018-07-28T11:12:22.885Z,30.23
2018-07-28T11:13:22.823Z,30.17
2018-07-28T11:14:22.814Z,30.16
2018-07-28T11:15:22.801Z,30.23
2018-07-28T11:16:22.794Z,30.35
2018-07-28T11:17:22.829Z,30.17
2018-07-28T11:18:22.776Z,30.35
2018-07-28T11:19:22.757Z,30.45
2018-07-28T11:20:22.750Z,30.34
2018-07-28T11:21:22.738Z,30.47
2018-07-28T11:22:22.771Z,30.60
2018-07-28T11:23:22.719Z,30.97
2018-07-28T11:24:22.714Z,31.34
2018-07-28T11:25:22.697Z,31.50
2018-07-28T11:26:22.692Z,31.57
2018-07-28T11:27:22.718Z,31.66
2018-07-28T11:28:22.663Z,31.91
2018-07-28T11:29:22.655Z,32.07
2018-07-28T11:30:22.643Z,32.37
2018-07-28T11:31:22.632Z,32.60
2018-07-28T11:32:22.675Z,32.75
2018-07-28T11:33:22.687Z,32.56
2018-07-28T11:34:22.598Z,32.59
2018-07-28T11:35:22.590Z,32.03
2018-07-28T11:36:22.582Z,31.85
2018-07-28T11:37:22.614Z,31.56
2018-07-28T11:38:22.558Z,31.56
2018-07-28T11:39:22.544Z,32.03
2018-07-28T11:40:22.536Z,32.62
2018-07-28T11:41:22.524Z,32.84
2018-07-28T11:42:22.560Z,32.88
2018-07-28T11:43:22.501Z,32.87
2018-07-28T11:44:22.493Z,32.60
2018-07-28T11:45:22.480Z,32.56
2018-07-28T11:46:22.470Z,32.41
2018-07-28T11:47:22.505Z,32.26
2018-07-28T11:48:22.451Z,32.13
2018-07-28T11:49:22.439Z,32.03
2018-07-28T11:50:22.428Z,31.86
2018-07-28T11:51:22.435Z,32.19
2018-07-28T11:52:22.465Z,32.14
2018-07-28T11:53:22.400Z,32.29
2018-07-28T11:54:22.392Z,32.35
2018-07-28T11:55:22.376Z,32.47
2018-07-28T11:56:22.403Z,32.52
2018-07-28T11:57:22.395Z,32.47
2018-07-28T11:58:22.433Z,32.40
2018-07-28T11:59:22.330Z,32.52
2018-07-28T12:00:22.322Z,32.77
2018-07-28T12:01:22.311Z,33.49
2018-07-28T12:02:22.355Z,33.82
2018-07-28T12:03:22.288Z,34.37
2018-07-28T12:04:22.280Z,34.77
2018-07-28T12:05:22.316Z,34.92
2018-07-28T12:06:22.256Z,35.41
2018-07-28T12:07:22.247Z,35.45
2018-07-28T12:08:22.303Z,35.62
2018-07-28T12:09:22.224Z,35.16
2018-07-28T12:10:22.215Z,35.26
2018-07-28T12:11:22.209Z,35.53
2018-07-28T12:12:22.210Z,35.60
2018-07-28T12:13:22.229Z,35.81
2018-07-28T12:14:22.175Z,36.05
2018-07-28T12:15:22.167Z,36.32
2018-07-28T12:16:22.151Z,36.00
2018-07-28T12:17:22.146Z,35.89
2018-07-28T12:18:22.184Z,35.85
2018-07-28T12:19:22.125Z,36.00
2018-07-28T12:20:22.112Z,36.32
2018-07-28T12:21:22.102Z,36.47
2018-07-28T12:22:22.092Z,36.22
2018-07-28T12:23:22.128Z,36.25
2018-07-28T12:24:22.094Z,35.70
2018-07-28T12:25:22.062Z,35.74
2018-07-28T12:26:22.055Z,36.03
2018-07-28T12:27:22.043Z,35.90
2018-07-28T12:28:22.079Z,36.05
2018-07-28T12:29:22.025Z,36.44
2018-07-28T12:30:22.012Z,36.57
2018-07-28T12:31:22.004Z,36.57
2018-07-28T12:32:21.997Z,36.64
2018-07-28T12:33:22.046Z,36.93
2018-07-28T12:34:21.975Z,36.78
2018-07-28T12:35:21.965Z,36.59
2018-07-28T12:36:21.982Z,36.93
2018-07-28T12:37:21.945Z,36.90
2018-07-28T12:38:22.012Z,36.83
2018-07-28T12:39:21.932Z,36.51
2018-07-28T12:40:21.913Z,36.44
2018-07-28T12:41:21.913Z,35.77
2018-07-28T12:42:21.897Z,35.21
2018-07-28T12:43:21.930Z,34.47
2018-07-28T12:44:21.875Z,34.02
2018-07-28T12:45:21.871Z,33.51
2018-07-28T12:46:21.852Z,32.82
2018-07-28T12:47:21.846Z,32.78
2018-07-28T12:48:21.877Z,32.60
2018-07-28T12:49:21.849Z,32.59
2018-07-28T12:50:21.812Z,32.59
2018-07-28T12:51:21.801Z,32.57
2018-07-28T12:52:21.791Z,32.60
2018-07-28T12:53:21.828Z,32.51
2018-07-28T12:54:21.786Z,32.48
2018-07-28T12:55:21.831Z,32.47
2018-07-28T12:56:21.764Z,32.32
2018-07-28T12:57:21.757Z,32.11
2018-07-28T12:58:21.779Z,32.13
2018-07-28T12:59:21.721Z,32.01
2018-07-28T13:00:21.717Z,31.85
2018-07-28T13:01:21.697Z,31.57
2018-07-28T13:02:21.686Z,31.56
2018-07-28T13:03:21.738Z,31.68
2018-07-28T13:04:21.673Z,31.86
2018-07-28T13:05:21.653Z,31.86
2018-07-28T13:06:21.650Z,31.88
2018-07-28T13:07:21.631Z,31.89
2018-07-28T13:08:21.623Z,31.76
2018-07-28T13:09:21.665Z,31.73
2018-07-28T13:10:21.609Z,31.84
2018-07-28T13:11:21.589Z,31.73
2018-07-28T13:12:21.585Z,31.70
2018-07-28T13:13:21.576Z,31.69
2018-07-28T13:14:21.603Z,31.54
2018-07-28T13:15:21.546Z,31.50
2018-07-28T13:16:21.535Z,31.48
2018-07-28T13:17:21.524Z,31.48
2018-07-28T13:18:21.516Z,31.46
2018-07-28T13:19:21.550Z,31.48
2018-07-28T13:20:21.493Z,31.48
2018-07-28T13:21:21.480Z,31.51
2018-07-28T13:22:21.467Z,31.46
2018-07-28T13:23:21.458Z,31.44
2018-07-28T13:24:21.492Z,31.48
2018-07-28T13:25:21.441Z,31.29
2018-07-28T13:26:21.484Z,31.34
2018-07-28T13:27:21.417Z,31.25
2018-07-28T13:28:21.424Z,31.21
2018-07-28T13:29:21.444Z,31.19
2018-07-28T13:30:21.390Z,31.32
2018-07-28T13:31:21.371Z,31.23
2018-07-28T13:32:21.361Z,31.34
2018-07-28T13:33:21.352Z,31.41
2018-07-28T13:34:21.385Z,31.34
2018-07-28T13:35:21.408Z,31.34
2018-07-28T13:36:21.327Z,31.38
2018-07-28T13:37:21.310Z,31.31
2018-07-28T13:38:21.303Z,31.31
2018-07-28T13:39:21.331Z,31.32
2018-07-28T13:40:21.278Z,31.39
2018-07-28T13:41:21.270Z,31.46
2018-07-28T13:42:21.253Z,31.47
2018-07-28T13:43:21.241Z,31.47
2018-07-28T13:44:21.288Z,31.43
2018-07-28T13:45:21.224Z,31.21
2018-07-28T13:46:21.210Z,31.06
2018-07-28T13:47:21.208Z,31.14
2018-07-28T13:48:21.188Z,31.26
2018-07-28T13:49:21.234Z,31.25
2018-07-28T13:50:21.169Z,31.28
2018-07-28T13:51:21.157Z,31.28
2018-07-28T13:52:21.148Z,31.25